Flight Track Log - Related Links

Times and Time Zones

All times are in EDT time to prevent confusion due to time zone crossing. See the JBU1374 flight status page for this flight to view local times or setup timezone preferences in your user account.

Time Position Orientation Groundspeed Altitude Reporting Facility
EDT Latitude Longitude Course Direction KTS MPH feet Rate Location/Type
Tue 05:35:54 PM 32.8583 -80.0167 31° Northeast 152 175 2,100  Level Jacksonville Center
Tue 05:36:54 PM 32.8858 -79.9489 64° Northeast 165 190 4,200 2,350 Climbing Jacksonville Center
Tue 05:37:00 PM 33.0122 -79.6922 59° Northeast  Level FlightAware Approximate
Tue 05:37:54 PM 32.9133 -79.8786 65° Northeast 200 230 6,800  Level Jacksonville Center
Tue 05:38:00 PM 33.0667 -79.5832 54° Northeast  Level FlightAware Approximate
Tue 05:38:54 PM 32.9658 -79.7978 52° Northeast 258 297 10,000  Level Jacksonville Center
Tue 05:39:00 PM 33.1287 -79.4800 54° Northeast  Level FlightAware Approximate
Tue 05:39:54 PM 33.0158 -79.7119 55° Northeast 289 333 11,400  Level Jacksonville Center
Tue 05:40:00 PM 33.1924 -79.3781 51° Northeast  Level FlightAware Approximate
Tue 05:40:54 PM 33.0678 -79.6183 56° Northeast 313 360 13,900  Level Jacksonville Center
Tue 05:41:00 PM 33.2608 -79.3233 31° Northeast  Level FlightAware Approximate
Tue 05:41:54 PM 33.1233 -79.5169 57° Northeast 343 395 16,300  Level Jacksonville Center
Tue 05:42:54 PM 33.1792 -79.4131 57° Northeast 358 412 17,900 1,800 Climbing Jacksonville Center
Tue 05:43:54 PM 33.2644 -79.3328 38° Northeast 371 427 19,900 1,900 Climbing Jacksonville Center
Tue 05:44:54 PM 33.3586 -79.2694 29° Northeast 371 427 21,700 1,550 Climbing Jacksonville Center
Tue 05:45:54 PM 33.4592 -79.2081 27° Northeast 383 441 23,000 650 Climbing Jacksonville Center
Tue 05:46:54 PM 33.5553 -79.1417 30° Northeast 395 455 23,000 500 Level Jacksonville Center
Tue 05:47:54 PM 33.6456 -79.0881 26° Northeast 395 455 24,000 1,250 Climbing Jacksonville Center
Tue 05:48:54 PM 33.7458 -79.0211 29° Northeast 400 460 25,500 1,250 Climbing Jacksonville Center
Tue 05:49:54 PM 33.8500 -78.9517 29° Northeast 411 473 26,500 1,200 Climbing Jacksonville Center
Tue 05:50:54 PM 33.9564 -78.8817 29° Northeast 416 479 27,900 893 Climbing Jacksonville Center
Tue 05:52:42 PM 34.1508 -78.7539 29° Northeast 433 498 29,000 391 Climbing Washington Center
Tue 05:53:43 PM 34.2719 -78.6781 27° Northeast 438 504 29,000  Level Washington Center
Tue 05:54:43 PM 34.3742 -78.5861 37° Northeast 445 512 29,000  Level Washington Center
Tue 05:55:44 PM 34.4706 -78.4889 40° Northeast 450 518 29,000  Level Washington Center
Tue 05:56:45 PM 34.5711 -78.3867 40° Northeast 456 525 29,000  Level Washington Center
Tue 05:57:42 PM 34.6714 -78.2867 39° Northeast 462 532 29,000  Level Washington Center
Tue 05:58:42 PM 34.7697 -78.1861 40° Northeast 462 532 29,000  Level Washington Center
Tue 05:59:44 PM 34.8531 -78.0925 43° Northeast 462 532 29,000  Level Washington Center
Tue 06:00:44 PM 34.9597 -77.9792 41° Northeast 457 526 29,000  Level Washington Center
Tue 06:01:43 PM 35.0556 -77.8831 39° Northeast 457 526 29,000  Level Washington Center
Tue 06:02:43 PM 35.1511 -77.7842 40° Northeast 457 526 29,000 -298 Level Washington Center
Tue 06:03:44 PM 35.2550 -77.6981 34° Northeast 452 520 28,400 -992 Descending Washington Center
Tue 06:04:44 PM 35.3564 -77.6219 31° Northeast 446 513 27,000 -712 Descending Washington Center
Tue 06:05:42 PM 35.4578 -77.5428 32° Northeast 434 499 27,000  Level Washington Center
Tue 06:06:42 PM 35.5572 -77.4661 32° Northeast 423 487 27,000  Level Washington Center
Tue 06:07:43 PM 35.6564 -77.3892 32° Northeast 423 487 27,000  Level Washington Center
Tue 06:08:43 PM 35.7578 -77.3147 31° Northeast 418 481 27,000  Level Washington Center
Tue 06:09:42 PM 35.8569 -77.2372 32° Northeast 418 481 27,000  Level Washington Center
Tue 06:10:42 PM 35.9539 -77.1597 33° Northeast 418 481 27,000  Level Washington Center
Tue 06:11:43 PM 36.0531 -77.0794 33° Northeast 418 481 27,000  Level Washington Center
Tue 06:12:43 PM 36.1497 -77.0042 32° Northeast 418 481 27,000  Level Washington Center
Tue 06:13:44 PM 36.2444 -76.9311 32° Northeast 413 475 27,000  Level Washington Center
Tue 06:14:42 PM 36.3414 -76.8556 32° Northeast 413 475 27,000  Level Washington Center
Tue 06:15:43 PM 36.4361 -76.7794 33° Northeast 408 470 27,000  Level Washington Center
Tue 06:16:44 PM 36.5328 -76.7061 31° Northeast 408 470 27,000  Level Washington Center
Tue 06:17:45 PM 36.6272 -76.6297 33° Northeast 408 470 27,000  Level Washington Center
Tue 06:18:42 PM 36.7114 -76.5608 33° Northeast 408 470 27,000  Level Washington Center
Tue 06:19:42 PM 36.8078 -76.4817 33° Northeast 408 470 27,000  Level Washington Center
Tue 06:20:44 PM 36.9003 -76.4075 33° Northeast 408 470 27,000  Level Washington Center
Tue 06:21:43 PM 36.9967 -76.3306 33° Northeast 408 470 27,000  Level Washington Center
Tue 06:22:43 PM 37.0908 -76.2558 32° Northeast 401 461 27,000  Level Washington Center
Tue 06:23:44 PM 37.1936 -76.1706 33° Northeast 396 456 27,000  Level Washington Center
Tue 06:24:42 PM 37.2836 -76.1061 30° Northeast 396 456 27,000  Level Washington Center
Tue 06:25:42 PM 37.3756 -76.0308 33° Northeast 402 463 27,000  Level Washington Center
Tue 06:26:43 PM 37.4739 -75.9503 33° Northeast 407 468 27,000  Level Washington Center
Tue 06:27:43 PM 37.5722 -75.8694 33° Northeast 413 475 27,000  Level Washington Center
Tue 06:28:44 PM 37.6725 -75.7861 33° Northeast 419 482 27,000  Level Washington Center
Tue 06:29:44 PM 37.7706 -75.7075 32° Northeast 424 488 27,000  Level Washington Center
Tue 06:30:44 PM 37.8686 -75.6233 34° Northeast 419 482 27,000  Level Washington Center
Tue 06:31:46 PM 37.9708 -75.5417 32° Northeast 419 482 27,000  Level Washington Center
Tue 06:32:43 PM 38.0708 -75.4600 33° Northeast 419 482 27,000  Level Washington Center
Tue 06:33:44 PM 38.1772 -75.3911 27° Northeast 424 488 27,000  Level Washington Center
Tue 06:34:44 PM 38.2833 -75.3247 26° Northeast 419 482 27,000  Level Washington Center
Tue 06:35:43 PM 38.3833 -75.2528 29° Northeast 409 471 27,000  Level Washington Center
Tue 06:36:44 PM 38.4914 -75.1886 25° Northeast 409 471 27,000  Level Washington Center
Tue 06:37:44 PM 38.5975 -75.1242 25° Northeast 414 476 27,000  Level Washington Center
Tue 06:38:46 PM 38.7014 -75.0569 27° Northeast 414 476 27,000  Level Washington Center
Tue 06:39:00 PM 38.7116 -75.0312 27° Northeast  Level FlightAware Approximate
Tue 06:39:43 PM 38.8053 -74.9869 28° Northeast 409 471 27,000  Level Washington Center
Tue 06:40:44 PM 38.9092 -74.9247 25° Northeast 409 471 27,000  Level Washington Center
Tue 06:41:44 PM 39.0131 -74.8517 29° Northeast 409 471 27,000  Level Washington Center
Tue 06:42:42 PM 39.1169 -74.7783 29° Northeast 409 471 27,000 -187 Level Washington Center
Tue 06:44:57 PM 39.3297 -74.5472 40° Northeast 409 471 26,400 -985 Descending New York Center
Tue 06:45:57 PM 39.4203 -74.4525 39° Northeast 410 472 23,800 -2,550 Descending New York Center
Tue 06:46:57 PM 39.5067 -74.3550 41° Northeast 410 472 21,300 -2,400 Descending New York Center
Tue 06:47:57 PM 39.5908 -74.2622 40° Northeast 404 465 19,000 -1,150 Descending New York Center
Tue 06:48:57 PM 39.6728 -74.1744 39° Northeast 392 451 19,000 -1,150 Level New York Center
Tue 06:49:57 PM 39.7544 -74.0814 41° Northeast 387 445 16,700 -2,550 Descending New York Center
Tue 06:50:57 PM 39.8275 -74.0036 39° Northeast 382 440 13,900 -2,350 Descending New York Center
Tue 06:51:57 PM 39.9064 -73.9425 31° Northeast 354 407 12,000 -1,500 Descending New York Center
Tue 06:52:57 PM 39.9831 -73.8836 30° Northeast 303 349 10,900 -500 Descending New York Center
Tue 06:53:57 PM 40.0531 -73.8297 31° Northeast 290 334 11,000 -400 Climbing New York Center
Tue 06:54:57 PM 40.1150 -73.7808 31° Northeast 290 334 10,100 -1,350 Descending New York Center
Tue 06:55:57 PM 40.1906 -73.7597 12° North 251 289 8,300 -1,682 Descending New York Center
Tue 06:57:09 PM 40.2500 -73.8667 306° West 271 312 6,400 -1,650 Descending New York TRACON
Tue 06:57:57 PM 40.2758 -73.9186 303° West 241 277 5,000 -1,722 Descending New York Center
Tue 06:58:57 PM 40.3503 -73.9411 347° North 245 282 3,300 -1,300 Descending New York Center
Tue 06:59:57 PM 40.4108 -73.9383 North 245 282 2,400 -550 Descending New York Center
Tue 07:00:57 PM 40.4578 -73.8997 32° Northeast 193 222 2,200 -150 Descending New York Center
Tue 07:01:57 PM 40.4878 -73.8683 39° Northeast 165 190 2,100 -100 Descending New York Center
Tue 07:02:57 PM 40.5300 -73.8483 20° North 150 173 2,000 -450 Descending New York Center
Tue 07:03:57 PM 40.5661 -73.8172 33° Northeast 150 173 1,200 -700 Descending New York Center
Tue 07:04:57 PM 40.5958 -73.7939 31° Northeast 140 161 600 -400 Descending New York Center
Tue 07:05:57 PM 40.6300 -73.7681 30° Northeast 140 161 400 -200 Descending New York Center
Tue 07:07:00 PM 40.6333 -73.7667 26° Northeast  Level FlightAware Approximate

Login

Don't have an account? Register now (free) for customized features, flight alerts, and more!